sensor_id;sensor_type;location;lat;lon;timestamp;P1;durP1;ratioP1;P2;durP2;ratioP2
25153;SDS011;47555;51.038;6.280;2023-05-14T00:01:03;14.00;;;10.57;;
25153;SDS011;47555;51.038;6.280;2023-05-14T00:03:29;14.32;;;11.60;;
25153;SDS011;47555;51.038;6.280;2023-05-14T00:05:55;15.77;;;11.57;;
25153;SDS011;47555;51.038;6.280;2023-05-14T00:08:20;13.63;;;10.65;;
25153;SDS011;47555;51.038;6.280;2023-05-14T00:10:46;16.95;;;12.50;;
25153;SDS011;47555;51.038;6.280;2023-05-14T00:13:11;17.98;;;13.38;;
25153;SDS011;47555;51.038;6.280;2023-05-14T00:15:37;15.48;;;12.48;;
25153;SDS011;47555;51.038;6.280;2023-05-14T00:18:02;16.40;;;12.82;;
25153;SDS011;47555;51.038;6.280;2023-05-14T00:20:28;16.13;;;12.02;;
25153;SDS011;47555;51.038;6.280;2023-05-14T00:22:54;15.60;;;11.82;;
25153;SDS011;47555;51.038;6.280;2023-05-14T00:25:19;15.35;;;11.13;;
25153;SDS011;47555;51.038;6.280;2023-05-14T00:27:45;14.45;;;11.68;;
25153;SDS011;47555;51.038;6.280;2023-05-14T00:30:10;13.68;;;11.35;;
25153;SDS011;47555;51.038;6.280;2023-05-14T00:32:36;17.98;;;12.80;;
25153;SDS011;47555;51.038;6.280;2023-05-14T00:35:02;20.02;;;13.25;;
25153;SDS011;47555;51.038;6.280;2023-05-14T00:37:28;18.45;;;13.23;;
25153;SDS011;47555;51.038;6.280;2023-05-14T00:39:54;17.65;;;12.85;;
25153;SDS011;47555;51.038;6.280;2023-05-14T00:42:19;16.80;;;11.57;;
25153;SDS011;47555;51.038;6.280;2023-05-14T00:44:45;14.48;;;11.32;;
25153;SDS011;47555;51.038;6.280;2023-05-14T00:47:10;14.35;;;11.55;;
25153;SDS011;47555;51.038;6.280;2023-05-14T00:49:36;15.15;;;11.73;;
25153;SDS011;47555;51.038;6.280;2023-05-14T00:52:03;13.95;;;10.75;;
25153;SDS011;47555;51.038;6.280;2023-05-14T00:54:29;13.20;;;11.15;;
25153;SDS011;47555;51.038;6.280;2023-05-14T00:56:55;16.13;;;11.52;;
25153;SDS011;47555;51.038;6.280;2023-05-14T00:59:22;15.32;;;11.43;;
25153;SDS011;47555;51.038;6.280;2023-05-14T01:01:47;16.08;;;11.30;;
25153;SDS011;47555;51.038;6.280;2023-05-14T01:04:13;15.38;;;11.30;;
25153;SDS011;47555;51.038;6.280;2023-05-14T01:06:44;17.10;;;11.70;;
25153;SDS011;47555;51.038;6.280;2023-05-14T01:14:53;18.25;;;13.43;;
25153;SDS011;47555;51.038;6.280;2023-05-14T01:17:24;16.25;;;12.88;;
25153;SDS011;47555;51.038;6.280;2023-05-14T01:19:52;20.38;;;13.13;;
25153;SDS011;47555;51.038;6.280;2023-05-14T01:22:20;16.83;;;12.80;;
25153;SDS011;47555;51.038;6.280;2023-05-14T01:24:46;22.63;;;14.98;;
25153;SDS011;47555;51.038;6.280;2023-05-14T01:30:12;21.85;;;15.60;;
25153;SDS011;47555;51.038;6.280;2023-05-14T01:32:52;18.52;;;13.55;;
25153;SDS011;47555;51.038;6.280;2023-05-14T01:35:20;15.88;;;13.18;;
25153;SDS011;47555;51.038;6.280;2023-05-14T01:37:49;17.98;;;12.40;;
25153;SDS011;47555;51.038;6.280;2023-05-14T01:40:15;16.77;;;13.43;;
25153;SDS011;47555;51.038;6.280;2023-05-14T01:42:41;17.05;;;12.35;;
25153;SDS011;47555;51.038;6.280;2023-05-14T01:45:07;19.23;;;14.07;;
25153;SDS011;47555;51.038;6.280;2023-05-14T01:47:34;16.63;;;13.07;;
25153;SDS011;47555;51.038;6.280;2023-05-14T01:49:59;17.90;;;13.48;;
25153;SDS011;47555;51.038;6.280;2023-05-14T01:52:25;14.95;;;12.07;;
25153;SDS011;47555;51.038;6.280;2023-05-14T01:54:50;16.23;;;11.60;;
25153;SDS011;47555;51.038;6.280;2023-05-14T01:57:16;16.45;;;11.77;;
25153;SDS011;47555;51.038;6.280;2023-05-14T01:59:41;18.63;;;13.45;;
25153;SDS011;47555;51.038;6.280;2023-05-14T02:02:07;16.30;;;12.90;;
25153;SDS011;47555;51.038;6.280;2023-05-14T02:04:32;16.35;;;12.25;;
25153;SDS011;47555;51.038;6.280;2023-05-14T02:06:57;17.55;;;12.95;;
25153;SDS011;47555;51.038;6.280;2023-05-14T02:09:23;19.67;;;13.60;;
25153;SDS011;47555;51.038;6.280;2023-05-14T02:11:49;25.90;;;16.95;;
25153;SDS011;47555;51.038;6.280;2023-05-14T02:14:14;23.58;;;15.43;;
25153;SDS011;47555;51.038;6.280;2023-05-14T02:16:40;23.98;;;16.60;;
25153;SDS011;47555;51.038;6.280;2023-05-14T02:19:06;25.50;;;16.50;;
25153;SDS011;47555;51.038;6.280;2023-05-14T02:21:31;25.67;;;18.40;;
25153;SDS011;47555;51.038;6.280;2023-05-14T02:23:57;21.70;;;14.90;;
25153;SDS011;47555;51.038;6.280;2023-05-14T02:26:22;21.98;;;15.45;;
25153;SDS011;47555;51.038;6.280;2023-05-14T02:28:50;21.48;;;15.38;;
25153;SDS011;47555;51.038;6.280;2023-05-14T02:31:16;21.50;;;15.20;;
25153;SDS011;47555;51.038;6.280;2023-05-14T02:33:43;26.08;;;15.90;;
25153;SDS011;47555;51.038;6.280;2023-05-14T02:36:09;24.50;;;17.88;;
25153;SDS011;47555;51.038;6.280;2023-05-14T02:38:34;22.52;;;15.52;;
25153;SDS011;47555;51.038;6.280;2023-05-14T02:41:00;20.75;;;15.43;;
25153;SDS011;47555;51.038;6.280;2023-05-14T02:43:25;29.15;;;18.70;;
25153;SDS011;47555;51.038;6.280;2023-05-14T02:45:51;22.88;;;15.18;;
25153;SDS011;47555;51.038;6.280;2023-05-14T02:48:16;18.27;;;13.60;;
25153;SDS011;47555;51.038;6.280;2023-05-14T02:50:42;21.85;;;14.02;;
25153;SDS011;47555;51.038;6.280;2023-05-14T02:53:07;19.73;;;14.70;;
25153;SDS011;47555;51.038;6.280;2023-05-14T02:55:33;23.02;;;15.13;;
25153;SDS011;47555;51.038;6.280;2023-05-14T02:57:59;19.60;;;13.52;;
25153;SDS011;47555;51.038;6.280;2023-05-14T03:00:25;18.45;;;13.57;;
25153;SDS011;47555;51.038;6.280;2023-05-14T03:02:50;20.83;;;15.25;;
25153;SDS011;47555;51.038;6.280;2023-05-14T03:05:16;19.00;;;14.20;;
25153;SDS011;47555;51.038;6.280;2023-05-14T03:07:41;20.63;;;12.90;;
25153;SDS011;47555;51.038;6.280;2023-05-14T03:10:07;23.88;;;16.10;;
25153;SDS011;47555;51.038;6.280;2023-05-14T03:12:33;21.30;;;14.88;;
25153;SDS011;47555;51.038;6.280;2023-05-14T03:14:58;21.58;;;14.38;;
25153;SDS011;47555;51.038;6.280;2023-05-14T03:17:24;22.75;;;14.10;;
25153;SDS011;47555;51.038;6.280;2023-05-14T03:19:49;21.20;;;13.88;;
25153;SDS011;47555;51.038;6.280;2023-05-14T03:22:15;18.85;;;13.25;;
25153;SDS011;47555;51.038;6.280;2023-05-14T03:24:40;18.45;;;12.82;;
25153;SDS011;47555;51.038;6.280;2023-05-14T03:27:06;16.20;;;11.98;;
25153;SDS011;47555;51.038;6.280;2023-05-14T03:29:31;17.25;;;12.23;;
25153;SDS011;47555;51.038;6.280;2023-05-14T03:31:57;17.05;;;11.95;;
25153;SDS011;47555;51.038;6.280;2023-05-14T03:34:22;17.63;;;12.95;;
25153;SDS011;47555;51.038;6.280;2023-05-14T03:36:48;15.40;;;11.45;;
25153;SDS011;47555;51.038;6.280;2023-05-14T03:39:14;16.48;;;12.68;;
25153;SDS011;47555;51.038;6.280;2023-05-14T03:41:43;18.02;;;12.75;;
25153;SDS011;47555;51.038;6.280;2023-05-14T03:44:09;16.50;;;12.18;;
25153;SDS011;47555;51.038;6.280;2023-05-14T03:46:35;20.33;;;14.50;;
25153;SDS011;47555;51.038;6.280;2023-05-14T03:49:00;19.08;;;13.57;;
25153;SDS011;47555;51.038;6.280;2023-05-14T03:51:26;17.15;;;12.38;;
25153;SDS011;47555;51.038;6.280;2023-05-14T03:53:51;18.45;;;12.32;;
25153;SDS011;47555;51.038;6.280;2023-05-14T03:56:16;16.42;;;11.82;;
25153;SDS011;47555;51.038;6.280;2023-05-14T03:58:42;14.85;;;11.65;;
25153;SDS011;47555;51.038;6.280;2023-05-14T04:01:07;18.17;;;12.52;;
25153;SDS011;47555;51.038;6.280;2023-05-14T04:03:33;18.23;;;12.30;;
25153;SDS011;47555;51.038;6.280;2023-05-14T04:05:58;15.43;;;11.63;;
25153;SDS011;47555;51.038;6.280;2023-05-14T04:08:25;15.00;;;10.77;;
25153;SDS011;47555;51.038;6.280;2023-05-14T04:10:50;17.30;;;12.02;;
25153;SDS011;47555;51.038;6.280;2023-05-14T04:13:16;17.45;;;11.90;;
25153;SDS011;47555;51.038;6.280;2023-05-14T04:15:41;17.88;;;12.73;;
25153;SDS011;47555;51.038;6.280;2023-05-14T04:18:07;17.08;;;12.32;;
25153;SDS011;47555;51.038;6.280;2023-05-14T04:20:33;16.65;;;11.93;;
25153;SDS011;47555;51.038;6.280;2023-05-14T04:22:58;16.73;;;12.70;;
25153;SDS011;47555;51.038;6.280;2023-05-14T04:25:24;16.23;;;12.52;;
25153;SDS011;47555;51.038;6.280;2023-05-14T04:27:49;16.95;;;12.23;;
25153;SDS011;47555;51.038;6.280;2023-05-14T04:30:15;18.45;;;13.00;;
25153;SDS011;47555;51.038;6.280;2023-05-14T04:32:40;18.85;;;12.93;;
25153;SDS011;47555;51.038;6.280;2023-05-14T04:35:06;16.40;;;12.52;;
25153;SDS011;47555;51.038;6.280;2023-05-14T04:37:34;19.10;;;13.23;;
25153;SDS011;47555;51.038;6.280;2023-05-14T04:39:59;19.30;;;13.55;;
25153;SDS011;47555;51.038;6.280;2023-05-14T04:42:25;17.00;;;11.40;;
25153;SDS011;47555;51.038;6.280;2023-05-14T04:44:53;17.95;;;13.00;;
25153;SDS011;47555;51.038;6.280;2023-05-14T04:47:18;17.13;;;12.43;;
25153;SDS011;47555;51.038;6.280;2023-05-14T04:49:45;18.20;;;13.18;;
25153;SDS011;47555;51.038;6.280;2023-05-14T04:52:10;17.98;;;13.05;;
25153;SDS011;47555;51.038;6.280;2023-05-14T04:54:36;17.10;;;12.70;;
25153;SDS011;47555;51.038;6.280;2023-05-14T04:57:01;17.55;;;12.73;;
25153;SDS011;47555;51.038;6.280;2023-05-14T04:59:27;16.70;;;12.45;;
25153;SDS011;47555;51.038;6.280;2023-05-14T05:01:53;18.15;;;12.95;;
25153;SDS011;47555;51.038;6.280;2023-05-14T05:04:19;19.23;;;13.65;;
25153;SDS011;47555;51.038;6.280;2023-05-14T05:06:45;18.50;;;12.63;;
25153;SDS011;47555;51.038;6.280;2023-05-14T05:09:10;19.52;;;13.40;;
25153;SDS011;47555;51.038;6.280;2023-05-14T05:11:36;17.65;;;13.13;;
25153;SDS011;47555;51.038;6.280;2023-05-14T05:14:02;20.33;;;14.35;;
25153;SDS011;47555;51.038;6.280;2023-05-14T05:16:31;20.65;;;14.07;;
25153;SDS011;47555;51.038;6.280;2023-05-14T05:18:56;20.88;;;14.25;;
25153;SDS011;47555;51.038;6.280;2023-05-14T05:21:22;23.70;;;15.20;;
25153;SDS011;47555;51.038;6.280;2023-05-14T05:23:48;21.60;;;15.70;;
25153;SDS011;47555;51.038;6.280;2023-05-14T05:26:16;20.38;;;14.35;;
25153;SDS011;47555;51.038;6.280;2023-05-14T05:28:42;21.08;;;15.30;;
25153;SDS011;47555;51.038;6.280;2023-05-14T05:31:07;24.80;;;16.35;;
25153;SDS011;47555;51.038;6.280;2023-05-14T05:33:33;25.63;;;17.48;;
25153;SDS011;47555;51.038;6.280;2023-05-14T05:35:59;23.08;;;16.13;;
25153;SDS011;47555;51.038;6.280;2023-05-14T05:38:24;22.92;;;15.07;;
25153;SDS011;47555;51.038;6.280;2023-05-14T05:40:50;22.85;;;16.92;;
25153;SDS011;47555;51.038;6.280;2023-05-14T05:43:16;25.52;;;16.73;;
25153;SDS011;47555;51.038;6.280;2023-05-14T05:45:42;26.17;;;16.05;;
25153;SDS011;47555;51.038;6.280;2023-05-14T05:48:09;22.90;;;16.20;;
25153;SDS011;47555;51.038;6.280;2023-05-14T05:50:35;21.80;;;16.13;;
25153;SDS011;47555;51.038;6.280;2023-05-14T05:53:00;25.88;;;17.90;;
25153;SDS011;47555;51.038;6.280;2023-05-14T05:55:27;27.60;;;18.90;;
25153;SDS011;47555;51.038;6.280;2023-05-14T05:57:53;23.60;;;17.95;;
25153;SDS011;47555;51.038;6.280;2023-05-14T06:00:18;22.35;;;17.02;;
25153;SDS011;47555;51.038;6.280;2023-05-14T06:02:45;23.10;;;17.25;;
25153;SDS011;47555;51.038;6.280;2023-05-14T06:05:10;23.65;;;16.73;;
25153;SDS011;47555;51.038;6.280;2023-05-14T06:07:36;23.77;;;16.70;;
25153;SDS011;47555;51.038;6.280;2023-05-14T06:10:02;21.92;;;15.25;;
25153;SDS011;47555;51.038;6.280;2023-05-14T06:12:28;24.02;;;15.80;;
25153;SDS011;47555;51.038;6.280;2023-05-14T06:14:54;21.10;;;16.40;;
25153;SDS011;47555;51.038;6.280;2023-05-14T06:17:22;21.17;;;16.48;;
25153;SDS011;47555;51.038;6.280;2023-05-14T06:19:48;22.13;;;17.00;;
25153;SDS011;47555;51.038;6.280;2023-05-14T06:22:14;20.02;;;16.25;;
25153;SDS011;47555;51.038;6.280;2023-05-14T06:24:39;22.30;;;16.00;;
25153;SDS011;47555;51.038;6.280;2023-05-14T06:27:05;26.25;;;18.50;;
25153;SDS011;47555;51.038;6.280;2023-05-14T06:29:30;23.55;;;16.75;;
25153;SDS011;47555;51.038;6.280;2023-05-14T06:31:59;21.65;;;16.63;;
25153;SDS011;47555;51.038;6.280;2023-05-14T06:34:26;21.80;;;16.90;;
25153;SDS011;47555;51.038;6.280;2023-05-14T06:36:51;21.05;;;16.60;;
25153;SDS011;47555;51.038;6.280;2023-05-14T06:39:17;19.85;;;16.38;;
25153;SDS011;47555;51.038;6.280;2023-05-14T06:41:42;19.15;;;16.25;;
25153;SDS011;47555;51.038;6.280;2023-05-14T06:44:08;19.33;;;16.90;;
25153;SDS011;47555;51.038;6.280;2023-05-14T06:46:33;19.30;;;15.63;;
25153;SDS011;47555;51.038;6.280;2023-05-14T06:48:59;20.52;;;16.35;;
25153;SDS011;47555;51.038;6.280;2023-05-14T06:51:24;19.45;;;16.70;;
25153;SDS011;47555;51.038;6.280;2023-05-14T06:53:50;21.63;;;16.35;;
25153;SDS011;47555;51.038;6.280;2023-05-14T06:56:19;21.38;;;16.70;;
25153;SDS011;47555;51.038;6.280;2023-05-14T06:58:46;19.52;;;15.68;;
25153;SDS011;47555;51.038;6.280;2023-05-14T07:01:12;17.83;;;15.85;;
25153;SDS011;47555;51.038;6.280;2023-05-14T07:03:37;22.25;;;17.17;;
25153;SDS011;47555;51.038;6.280;2023-05-14T07:06:03;22.23;;;16.83;;
25153;SDS011;47555;51.038;6.280;2023-05-14T07:08:28;20.90;;;17.52;;
25153;SDS011;47555;51.038;6.280;2023-05-14T07:10:54;21.55;;;18.17;;
25153;SDS011;47555;51.038;6.280;2023-05-14T07:13:21;21.15;;;16.77;;
25153;SDS011;47555;51.038;6.280;2023-05-14T07:15:46;18.38;;;15.57;;
25153;SDS011;47555;51.038;6.280;2023-05-14T07:18:12;25.27;;;19.45;;
25153;SDS011;47555;51.038;6.280;2023-05-14T07:20:38;20.50;;;17.70;;
25153;SDS011;47555;51.038;6.280;2023-05-14T07:23:03;23.17;;;19.00;;
25153;SDS011;47555;51.038;6.280;2023-05-14T07:25:29;22.33;;;18.08;;
25153;SDS011;47555;51.038;6.280;2023-05-14T07:27:57;23.15;;;19.73;;
25153;SDS011;47555;51.038;6.280;2023-05-14T07:30:22;25.65;;;19.50;;
25153;SDS011;47555;51.038;6.280;2023-05-14T07:32:48;19.67;;;17.42;;
25153;SDS011;47555;51.038;6.280;2023-05-14T07:35:14;23.50;;;19.05;;
25153;SDS011;47555;51.038;6.280;2023-05-14T07:37:41;23.52;;;18.50;;
25153;SDS011;47555;51.038;6.280;2023-05-14T07:40:07;25.10;;;19.02;;
25153;SDS011;47555;51.038;6.280;2023-05-14T07:42:33;27.52;;;18.80;;
25153;SDS011;47555;51.038;6.280;2023-05-14T07:44:58;23.05;;;18.08;;
25153;SDS011;47555;51.038;6.280;2023-05-14T07:47:24;20.63;;;17.40;;
25153;SDS011;47555;51.038;6.280;2023-05-14T07:49:52;20.67;;;16.58;;
25153;SDS011;47555;51.038;6.280;2023-05-14T07:52:19;20.30;;;17.25;;
25153;SDS011;47555;51.038;6.280;2023-05-14T07:54:44;21.95;;;18.10;;
25153;SDS011;47555;51.038;6.280;2023-05-14T07:57:10;23.35;;;19.60;;
25153;SDS011;47555;51.038;6.280;2023-05-14T07:59:35;23.45;;;19.20;;
25153;SDS011;47555;51.038;6.280;2023-05-14T08:02:01;21.90;;;19.00;;
25153;SDS011;47555;51.038;6.280;2023-05-14T08:04:26;21.52;;;18.02;;
25153;SDS011;47555;51.038;6.280;2023-05-14T08:06:52;20.05;;;16.10;;
25153;SDS011;47555;51.038;6.280;2023-05-14T08:09:17;21.58;;;18.40;;
25153;SDS011;47555;51.038;6.280;2023-05-14T08:11:43;22.98;;;17.48;;
25153;SDS011;47555;51.038;6.280;2023-05-14T08:14:08;21.58;;;18.27;;
25153;SDS011;47555;51.038;6.280;2023-05-14T08:16:34;22.88;;;19.13;;
25153;SDS011;47555;51.038;6.280;2023-05-14T08:19:00;19.70;;;17.45;;
25153;SDS011;47555;51.038;6.280;2023-05-14T08:21:25;23.77;;;18.25;;
25153;SDS011;47555;51.038;6.280;2023-05-14T08:23:52;24.38;;;19.42;;
25153;SDS011;47555;51.038;6.280;2023-05-14T08:26:17;22.55;;;16.75;;
25153;SDS011;47555;51.038;6.280;2023-05-14T08:28:43;25.13;;;19.42;;
25153;SDS011;47555;51.038;6.280;2023-05-14T08:31:08;22.33;;;18.67;;
25153;SDS011;47555;51.038;6.280;2023-05-14T08:33:34;22.17;;;18.80;;
25153;SDS011;47555;51.038;6.280;2023-05-14T08:35:59;22.88;;;17.90;;
25153;SDS011;47555;51.038;6.280;2023-05-14T08:38:25;20.98;;;18.50;;
25153;SDS011;47555;51.038;6.280;2023-05-14T08:40:57;20.55;;;17.95;;
25153;SDS011;47555;51.038;6.280;2023-05-14T08:43:26;21.85;;;18.58;;
25153;SDS011;47555;51.038;6.280;2023-05-14T08:45:57;21.17;;;16.42;;
25153;SDS011;47555;51.038;6.280;2023-05-14T08:48:25;20.33;;;17.73;;
25153;SDS011;47555;51.038;6.280;2023-05-14T08:50:55;19.45;;;16.92;;
25153;SDS011;47555;51.038;6.280;2023-05-14T08:53:22;23.27;;;18.92;;
25153;SDS011;47555;51.038;6.280;2023-05-14T08:55:49;20.90;;;17.30;;
25153;SDS011;47555;51.038;6.280;2023-05-14T08:58:15;20.17;;;17.83;;
25153;SDS011;47555;51.038;6.280;2023-05-14T09:00:41;22.55;;;19.85;;
25153;SDS011;47555;51.038;6.280;2023-05-14T09:03:06;20.10;;;16.58;;
25153;SDS011;47555;51.038;6.280;2023-05-14T09:05:32;22.83;;;18.60;;
25153;SDS011;47555;51.038;6.280;2023-05-14T09:07:58;20.42;;;18.23;;
25153;SDS011;47555;51.038;6.280;2023-05-14T09:10:23;23.23;;;18.42;;
25153;SDS011;47555;51.038;6.280;2023-05-14T09:12:50;22.17;;;18.92;;
25153;SDS011;47555;51.038;6.280;2023-05-14T09:15:15;20.40;;;17.70;;
25153;SDS011;47555;51.038;6.280;2023-05-14T09:17:42;24.30;;;19.98;;
25153;SDS011;47555;51.038;6.280;2023-05-14T09:20:08;25.98;;;21.13;;
25153;SDS011;47555;51.038;6.280;2023-05-14T09:22:36;22.10;;;18.83;;
25153;SDS011;47555;51.038;6.280;2023-05-14T09:25:09;25.25;;;20.00;;
25153;SDS011;47555;51.038;6.280;2023-05-14T09:27:36;27.02;;;21.15;;
25153;SDS011;47555;51.038;6.280;2023-05-14T09:30:09;25.67;;;20.30;;
25153;SDS011;47555;51.038;6.280;2023-05-14T09:32:36;24.52;;;19.83;;
25153;SDS011;47555;51.038;6.280;2023-05-14T09:35:13;27.42;;;21.98;;
25153;SDS011;47555;51.038;6.280;2023-05-14T09:37:41;20.70;;;18.50;;
25153;SDS011;47555;51.038;6.280;2023-05-14T09:40:08;24.08;;;20.55;;
25153;SDS011;47555;51.038;6.280;2023-05-14T09:42:34;23.23;;;19.42;;
25153;SDS011;47555;51.038;6.280;2023-05-14T09:45:00;25.73;;;19.98;;
25153;SDS011;47555;51.038;6.280;2023-05-14T09:47:26;21.45;;;18.73;;
25153;SDS011;47555;51.038;6.280;2023-05-14T09:49:51;26.60;;;19.55;;
25153;SDS011;47555;51.038;6.280;2023-05-14T09:52:17;22.63;;;18.77;;
25153;SDS011;47555;51.038;6.280;2023-05-14T09:54:43;24.67;;;20.48;;
25153;SDS011;47555;51.038;6.280;2023-05-14T09:57:10;22.90;;;20.30;;
25153;SDS011;47555;51.038;6.280;2023-05-14T09:59:36;20.95;;;17.40;;
25153;SDS011;47555;51.038;6.280;2023-05-14T10:02:02;19.70;;;17.55;;
25153;SDS011;47555;51.038;6.280;2023-05-14T10:04:31;21.25;;;18.90;;
25153;SDS011;47555;51.038;6.280;2023-05-14T10:06:58;24.65;;;19.15;;
25153;SDS011;47555;51.038;6.280;2023-05-14T10:09:24;22.83;;;19.73;;
25153;SDS011;47555;51.038;6.280;2023-05-14T10:11:53;19.85;;;17.10;;
25153;SDS011;47555;51.038;6.280;2023-05-14T10:14:25;21.08;;;18.83;;
25153;SDS011;47555;51.038;6.280;2023-05-14T10:16:54;23.52;;;17.55;;
25153;SDS011;47555;51.038;6.280;2023-05-14T10:19:22;23.95;;;19.40;;
25153;SDS011;47555;51.038;6.280;2023-05-14T10:21:52;21.63;;;19.38;;
25153;SDS011;47555;51.038;6.280;2023-05-14T10:24:20;23.42;;;19.58;;
25153;SDS011;47555;51.038;6.280;2023-05-14T10:26:46;23.00;;;19.00;;
25153;SDS011;47555;51.038;6.280;2023-05-14T10:29:13;19.48;;;16.77;;
25153;SDS011;47555;51.038;6.280;2023-05-14T10:31:46;22.88;;;18.45;;
25153;SDS011;47555;51.038;6.280;2023-05-14T10:34:45;18.02;;;16.13;;
25153;SDS011;47555;51.038;6.280;2023-05-14T10:37:11;20.00;;;16.67;;
25153;SDS011;47555;51.038;6.280;2023-05-14T10:39:53;19.60;;;16.30;;
25153;SDS011;47555;51.038;6.280;2023-05-14T10:42:23;18.73;;;15.98;;
25153;SDS011;47555;51.038;6.280;2023-05-14T10:44:52;18.30;;;15.30;;
25153;SDS011;47555;51.038;6.280;2023-05-14T10:47:19;17.37;;;14.53;;
25153;SDS011;47555;51.038;6.280;2023-05-14T10:49:46;19.88;;;16.67;;
25153;SDS011;47555;51.038;6.280;2023-05-14T10:52:14;17.77;;;15.40;;
25153;SDS011;47555;51.038;6.280;2023-05-14T10:54:44;16.63;;;15.02;;
25153;SDS011;47555;51.038;6.280;2023-05-14T10:57:10;16.88;;;15.00;;
25153;SDS011;47555;51.038;6.280;2023-05-14T10:59:38;15.05;;;13.55;;
25153;SDS011;47555;51.038;6.280;2023-05-14T11:04:41;19.58;;;14.90;;
25153;SDS011;47555;51.038;6.280;2023-05-14T11:07:07;16.15;;;13.38;;
25153;SDS011;47555;51.038;6.280;2023-05-14T11:09:33;19.45;;;15.57;;
25153;SDS011;47555;51.038;6.280;2023-05-14T11:11:59;21.88;;;18.42;;
25153;SDS011;47555;51.038;6.280;2023-05-14T11:14:28;18.35;;;16.40;;
25153;SDS011;47555;51.038;6.280;2023-05-14T11:16:54;22.38;;;17.67;;
25153;SDS011;47555;51.038;6.280;2023-05-14T11:19:20;21.00;;;17.40;;
25153;SDS011;47555;51.038;6.280;2023-05-14T11:21:46;19.70;;;16.92;;
25153;SDS011;47555;51.038;6.280;2023-05-14T11:24:12;19.67;;;17.60;;
25153;SDS011;47555;51.038;6.280;2023-05-14T11:26:38;21.73;;;16.35;;
25153;SDS011;47555;51.038;6.280;2023-05-14T11:29:04;24.17;;;16.80;;
25153;SDS011;47555;51.038;6.280;2023-05-14T11:31:30;14.88;;;13.18;;
25153;SDS011;47555;51.038;6.280;2023-05-14T11:33:56;15.40;;;13.00;;
25153;SDS011;47555;51.038;6.280;2023-05-14T11:36:22;21.70;;;17.73;;
25153;SDS011;47555;51.038;6.280;2023-05-14T11:38:48;19.42;;;16.00;;
25153;SDS011;47555;51.038;6.280;2023-05-14T11:41:15;19.85;;;17.38;;
25153;SDS011;47555;51.038;6.280;2023-05-14T11:43:41;22.42;;;17.58;;
25153;SDS011;47555;51.038;6.280;2023-05-14T11:46:07;19.27;;;16.20;;
25153;SDS011;47555;51.038;6.280;2023-05-14T11:48:41;20.60;;;16.90;;
25153;SDS011;47555;51.038;6.280;2023-05-14T11:51:07;21.15;;;17.20;;
25153;SDS011;47555;51.038;6.280;2023-05-14T11:53:33;20.25;;;17.08;;
25153;SDS011;47555;51.038;6.280;2023-05-14T11:55:59;18.33;;;15.70;;
25153;SDS011;47555;51.038;6.280;2023-05-14T11:58:25;16.77;;;14.35;;
25153;SDS011;47555;51.038;6.280;2023-05-14T12:00:51;17.27;;;15.38;;
25153;SDS011;47555;51.038;6.280;2023-05-14T12:03:18;19.13;;;16.05;;
25153;SDS011;47555;51.038;6.280;2023-05-14T12:05:59;14.82;;;12.82;;
25153;SDS011;47555;51.038;6.280;2023-05-14T12:08:26;18.00;;;12.80;;
25153;SDS011;47555;51.038;6.280;2023-05-14T12:10:52;15.60;;;10.70;;
25153;SDS011;47555;51.038;6.280;2023-05-14T12:13:18;10.68;;;9.57;;
25153;SDS011;47555;51.038;6.280;2023-05-14T12:15:45;8.00;;;6.20;;
25153;SDS011;47555;51.038;6.280;2023-05-14T12:18:11;6.13;;;5.53;;
25153;SDS011;47555;51.038;6.280;2023-05-14T12:20:37;6.57;;;5.00;;
25153;SDS011;47555;51.038;6.280;2023-05-14T12:23:03;5.68;;;4.50;;
25153;SDS011;47555;51.038;6.280;2023-05-14T12:25:29;5.15;;;4.65;;
25153;SDS011;47555;51.038;6.280;2023-05-14T12:27:55;7.22;;;4.88;;
25153;SDS011;47555;51.038;6.280;2023-05-14T12:30:21;5.00;;;4.60;;
25153;SDS011;47555;51.038;6.280;2023-05-14T12:32:47;4.93;;;4.43;;
25153;SDS011;47555;51.038;6.280;2023-05-14T12:35:16;5.35;;;4.40;;
25153;SDS011;47555;51.038;6.280;2023-05-14T12:37:42;4.53;;;4.05;;
25153;SDS011;47555;51.038;6.280;2023-05-14T12:40:08;4.57;;;4.18;;
25153;SDS011;47555;51.038;6.280;2023-05-14T12:42:34;6.07;;;4.68;;
25153;SDS011;47555;51.038;6.280;2023-05-14T12:45:00;4.95;;;4.30;;
25153;SDS011;47555;51.038;6.280;2023-05-14T12:47:29;4.85;;;4.38;;
25153;SDS011;47555;51.038;6.280;2023-05-14T12:49:56;8.10;;;5.00;;
25153;SDS011;47555;51.038;6.280;2023-05-14T12:52:22;4.60;;;4.18;;
25153;SDS011;47555;51.038;6.280;2023-05-14T12:54:48;5.38;;;4.60;;
25153;SDS011;47555;51.038;6.280;2023-05-14T12:57:14;6.93;;;5.10;;
25153;SDS011;47555;51.038;6.280;2023-05-14T12:59:40;6.10;;;5.10;;
25153;SDS011;47555;51.038;6.280;2023-05-14T13:02:06;6.15;;;4.90;;
25153;SDS011;47555;51.038;6.280;2023-05-14T13:04:32;6.07;;;5.25;;
25153;SDS011;47555;51.038;6.280;2023-05-14T13:06:58;6.07;;;5.13;;
25153;SDS011;47555;51.038;6.280;2023-05-14T13:09:24;7.35;;;5.22;;
25153;SDS011;47555;51.038;6.280;2023-05-14T13:11:51;5.90;;;4.97;;
25153;SDS011;47555;51.038;6.280;2023-05-14T13:14:17;6.00;;;4.72;;
25153;SDS011;47555;51.038;6.280;2023-05-14T13:16:43;6.80;;;4.82;;
25153;SDS011;47555;51.038;6.280;2023-05-14T13:19:09;5.45;;;4.95;;
25153;SDS011;47555;51.038;6.280;2023-05-14T13:21:35;4.80;;;4.10;;
25153;SDS011;47555;51.038;6.280;2023-05-14T13:24:01;4.80;;;4.40;;
25153;SDS011;47555;51.038;6.280;2023-05-14T13:26:27;7.45;;;4.57;;
25153;SDS011;47555;51.038;6.280;2023-05-14T13:28:53;6.45;;;5.10;;
25153;SDS011;47555;51.038;6.280;2023-05-14T13:31:19;6.00;;;4.50;;
25153;SDS011;47555;51.038;6.280;2023-05-14T13:33:45;5.80;;;4.43;;
25153;SDS011;47555;51.038;6.280;2023-05-14T13:36:12;5.50;;;4.57;;
25153;SDS011;47555;51.038;6.280;2023-05-14T13:38:38;9.45;;;4.47;;
25153;SDS011;47555;51.038;6.280;2023-05-14T13:41:04;5.00;;;4.05;;
25153;SDS011;47555;51.038;6.280;2023-05-14T13:43:33;6.00;;;4.50;;
25153;SDS011;47555;51.038;6.280;2023-05-14T13:46:00;4.65;;;4.15;;
25153;SDS011;47555;51.038;6.280;2023-05-14T13:48:27;4.55;;;4.00;;
25153;SDS011;47555;51.038;6.280;2023-05-14T13:50:53;5.03;;;4.53;;
25153;SDS011;47555;51.038;6.280;2023-05-14T13:53:19;5.75;;;4.57;;
25153;SDS011;47555;51.038;6.280;2023-05-14T13:55:45;5.55;;;4.50;;
25153;SDS011;47555;51.038;6.280;2023-05-14T13:58:11;4.93;;;4.45;;
25153;SDS011;47555;51.038;6.280;2023-05-14T14:00:37;7.75;;;4.80;;
25153;SDS011;47555;51.038;6.280;2023-05-14T14:03:04;4.80;;;4.40;;
25153;SDS011;47555;51.038;6.280;2023-05-14T14:05:30;5.68;;;4.60;;
25153;SDS011;47555;51.038;6.280;2023-05-14T14:07:56;5.82;;;4.40;;
25153;SDS011;47555;51.038;6.280;2023-05-14T14:10:22;4.82;;;4.32;;
25153;SDS011;47555;51.038;6.280;2023-05-14T14:12:48;4.85;;;4.38;;
25153;SDS011;47555;51.038;6.280;2023-05-14T14:15:14;6.32;;;4.25;;
25153;SDS011;47555;51.038;6.280;2023-05-14T14:17:40;5.47;;;4.95;;
25153;SDS011;47555;51.038;6.280;2023-05-14T14:20:06;7.00;;;5.30;;
25153;SDS011;47555;51.038;6.280;2023-05-14T14:22:33;6.07;;;4.60;;
25153;SDS011;47555;51.038;6.280;2023-05-14T14:24:59;5.15;;;4.40;;
25153;SDS011;47555;51.038;6.280;2023-05-14T14:27:25;5.03;;;4.50;;
25153;SDS011;47555;51.038;6.280;2023-05-14T14:29:51;5.18;;;4.32;;
25153;SDS011;47555;51.038;6.280;2023-05-14T14:32:17;5.40;;;4.82;;